Welcome to La Porte Aviation Services!

An aviation adventure awaits

Current Weather Conditions

Available data for KPPO from the past 2 hours
LA PORTE, IN
Metar
KPPO 231615Z AUTO 35012KT 10SM CLR 09/06 A2980 RMK AO2 T00940062

16:15 UTC

Wind: 350° 12kt

Visibility: 10 SM

Sky:

Temp: 9 deg C / 48.2 deg F

Dewpoint: 6 deg C / 42.8 deg F

Pressure: 29.8 inHg

Pireps (7)
GSH UA /OV GSH100030/TM 1606/FL240/TP B737/TB LGT-MOD 240-270
KORD UA /OV ORD360030/TM 1600/FL120/TP C56X/TB MOD
AZO UA /OV AZO230010/TM 1543/FL025/TP CRJ2/SK SCT-OVC/TOP028/RM FARTHER WEST OVC
LAF UA /OV BVT150018/TM 1528/FL360/TP CRJ9/TB NEG
LAF UA /OV BVT090010/TM 1527/FL340/TP A321/TB MOD CHOP
OKK UA /OV BVT/TM 1509/FL230/TP B737/TB LGT-MOD 230-280
KUGN UA /OV 050/03/TM 1439/FLDURC/TP G-5/RM CLOUD BASES AT 017 TOPS AT 030

Connect with us on Facebook!

Facebook By Weblizar Powered By Weblizar